sensor_id;sensor_type;location;lat;lon;timestamp;P1;durP1;ratioP1;P2;durP2;ratioP2
36855;SDS011;22788;51.434;6.786;2022-09-29T00:00:23;3.70;;;3.20;;
36855;SDS011;22788;51.434;6.786;2022-09-29T00:02:49;4.70;;;3.70;;
36855;SDS011;22788;51.434;6.786;2022-09-29T00:05:15;5.60;;;3.20;;
36855;SDS011;22788;51.434;6.786;2022-09-29T00:07:43;3.80;;;3.40;;
36855;SDS011;22788;51.434;6.786;2022-09-29T00:10:09;4.37;;;3.27;;
36855;SDS011;22788;51.434;6.786;2022-09-29T00:12:35;3.80;;;3.10;;
36855;SDS011;22788;51.434;6.786;2022-09-29T00:15:02;4.20;;;3.20;;
36855;SDS011;22788;51.434;6.786;2022-09-29T00:17:29;3.63;;;3.13;;
36855;SDS011;22788;51.434;6.786;2022-09-29T00:19:55;4.70;;;3.07;;
36855;SDS011;22788;51.434;6.786;2022-09-29T00:22:21;3.43;;;2.97;;
36855;SDS011;22788;51.434;6.786;2022-09-29T00:24:48;5.00;;;3.40;;
36855;SDS011;22788;51.434;6.786;2022-09-29T00:27:14;5.17;;;3.20;;
36855;SDS011;22788;51.434;6.786;2022-09-29T00:29:41;5.43;;;3.30;;
36855;SDS011;22788;51.434;6.786;2022-09-29T00:32:07;4.17;;;3.17;;
36855;SDS011;22788;51.434;6.786;2022-09-29T00:34:33;3.57;;;2.93;;
36855;SDS011;22788;51.434;6.786;2022-09-29T00:36:59;3.87;;;3.13;;
36855;SDS011;22788;51.434;6.786;2022-09-29T00:39:25;5.27;;;3.37;;
36855;SDS011;22788;51.434;6.786;2022-09-29T00:41:53;4.37;;;2.90;;
36855;SDS011;22788;51.434;6.786;2022-09-29T00:47:23;3.47;;;3.03;;
36855;SDS011;22788;51.434;6.786;2022-09-29T00:49:51;3.77;;;2.97;;
36855;SDS011;22788;51.434;6.786;2022-09-29T00:52:21;4.37;;;3.00;;
36855;SDS011;22788;51.434;6.786;2022-09-29T00:54:51;3.67;;;2.90;;
36855;SDS011;22788;51.434;6.786;2022-09-29T00:57:22;3.60;;;3.00;;
36855;SDS011;22788;51.434;6.786;2022-09-29T00:59:53;4.03;;;3.07;;
36855;SDS011;22788;51.434;6.786;2022-09-29T01:02:23;4.60;;;3.43;;
36855;SDS011;22788;51.434;6.786;2022-09-29T01:04:49;3.73;;;2.73;;
36855;SDS011;22788;51.434;6.786;2022-09-29T01:07:18;3.83;;;3.37;;
36855;SDS011;22788;51.434;6.786;2022-09-29T01:09:45;3.33;;;3.00;;
36855;SDS011;22788;51.434;6.786;2022-09-29T01:12:12;3.67;;;3.10;;
36855;SDS011;22788;51.434;6.786;2022-09-29T01:14:39;4.00;;;3.00;;
36855;SDS011;22788;51.434;6.786;2022-09-29T01:17:05;6.23;;;3.20;;
36855;SDS011;22788;51.434;6.786;2022-09-29T01:19:34;5.03;;;3.17;;
36855;SDS011;22788;51.434;6.786;2022-09-29T01:22:12;4.00;;;3.10;;
36855;SDS011;22788;51.434;6.786;2022-09-29T01:24:53;4.67;;;2.80;;
36855;SDS011;22788;51.434;6.786;2022-09-29T01:27:35;3.63;;;2.83;;
36855;SDS011;22788;51.434;6.786;2022-09-29T01:30:24;4.20;;;2.93;;
36855;SDS011;22788;51.434;6.786;2022-09-29T01:33:08;3.37;;;3.07;;
36855;SDS011;22788;51.434;6.786;2022-09-29T01:35:47;2.83;;;2.60;;
36855;SDS011;22788;51.434;6.786;2022-09-29T01:38:26;3.47;;;2.77;;
36855;SDS011;22788;51.434;6.786;2022-09-29T01:41:02;4.37;;;2.80;;
36855;SDS011;22788;51.434;6.786;2022-09-29T01:43:35;3.63;;;3.00;;
36855;SDS011;22788;51.434;6.786;2022-09-29T01:46:10;3.47;;;3.10;;
36855;SDS011;22788;51.434;6.786;2022-09-29T01:48:42;2.80;;;2.60;;
36855;SDS011;22788;51.434;6.786;2022-09-29T01:51:11;3.67;;;2.87;;
36855;SDS011;22788;51.434;6.786;2022-09-29T01:53:41;3.93;;;3.20;;
36855;SDS011;22788;51.434;6.786;2022-09-29T01:56:13;4.57;;;3.03;;
36855;SDS011;22788;51.434;6.786;2022-09-29T01:58:44;4.90;;;2.97;;
36855;SDS011;22788;51.434;6.786;2022-09-29T02:01:17;3.93;;;3.03;;
36855;SDS011;22788;51.434;6.786;2022-09-29T02:03:47;4.73;;;3.13;;
36855;SDS011;22788;51.434;6.786;2022-09-29T02:06:19;4.30;;;3.23;;
36855;SDS011;22788;51.434;6.786;2022-09-29T02:08:50;4.03;;;3.13;;
36855;SDS011;22788;51.434;6.786;2022-09-29T02:11:18;4.13;;;2.93;;
36855;SDS011;22788;51.434;6.786;2022-09-29T02:13:45;3.33;;;3.00;;
36855;SDS011;22788;51.434;6.786;2022-09-29T02:16:16;3.20;;;2.90;;
36855;SDS011;22788;51.434;6.786;2022-09-29T02:18:47;3.47;;;3.07;;
36855;SDS011;22788;51.434;6.786;2022-09-29T02:21:17;4.53;;;3.30;;
36855;SDS011;22788;51.434;6.786;2022-09-29T02:23:43;4.17;;;3.30;;
36855;SDS011;22788;51.434;6.786;2022-09-29T02:26:10;3.53;;;2.90;;
36855;SDS011;22788;51.434;6.786;2022-09-29T02:28:37;3.87;;;2.73;;
36855;SDS011;22788;51.434;6.786;2022-09-29T02:31:03;5.10;;;2.70;;
36855;SDS011;22788;51.434;6.786;2022-09-29T02:33:31;4.10;;;3.00;;
36855;SDS011;22788;51.434;6.786;2022-09-29T02:36:00;3.03;;;2.70;;
36855;SDS011;22788;51.434;6.786;2022-09-29T02:38:41;4.23;;;2.90;;
36855;SDS011;22788;51.434;6.786;2022-09-29T02:41:11;3.57;;;2.90;;
36855;SDS011;22788;51.434;6.786;2022-09-29T02:43:53;3.77;;;2.77;;
36855;SDS011;22788;51.434;6.786;2022-09-29T02:46:37;4.47;;;3.00;;
36855;SDS011;22788;51.434;6.786;2022-09-29T02:49:24;4.37;;;3.27;;
36855;SDS011;22788;51.434;6.786;2022-09-29T02:51:58;6.43;;;2.90;;
36855;SDS011;22788;51.434;6.786;2022-09-29T02:54:30;3.53;;;2.90;;
36855;SDS011;22788;51.434;6.786;2022-09-29T02:57:07;3.43;;;3.00;;
36855;SDS011;22788;51.434;6.786;2022-09-29T02:59:41;5.10;;;3.30;;
36855;SDS011;22788;51.434;6.786;2022-09-29T03:02:14;3.20;;;2.80;;
36855;SDS011;22788;51.434;6.786;2022-09-29T03:04:41;4.40;;;3.10;;
36855;SDS011;22788;51.434;6.786;2022-09-29T03:07:07;3.20;;;2.90;;
36855;SDS011;22788;51.434;6.786;2022-09-29T03:09:33;4.27;;;2.80;;
36855;SDS011;22788;51.434;6.786;2022-09-29T03:11:59;3.47;;;2.90;;
36855;SDS011;22788;51.434;6.786;2022-09-29T03:14:26;3.33;;;2.90;;
36855;SDS011;22788;51.434;6.786;2022-09-29T03:16:52;4.70;;;2.83;;
36855;SDS011;22788;51.434;6.786;2022-09-29T03:19:18;2.80;;;2.57;;
36855;SDS011;22788;51.434;6.786;2022-09-29T03:21:45;3.37;;;2.90;;
36855;SDS011;22788;51.434;6.786;2022-09-29T03:24:11;3.00;;;2.63;;
36855;SDS011;22788;51.434;6.786;2022-09-29T03:26:37;3.87;;;3.00;;
36855;SDS011;22788;51.434;6.786;2022-09-29T03:29:03;2.57;;;2.37;;
36855;SDS011;22788;51.434;6.786;2022-09-29T03:31:29;4.40;;;3.10;;
36855;SDS011;22788;51.434;6.786;2022-09-29T03:33:55;3.33;;;2.83;;
36855;SDS011;22788;51.434;6.786;2022-09-29T03:36:21;3.53;;;3.00;;
36855;SDS011;22788;51.434;6.786;2022-09-29T03:38:48;4.40;;;3.10;;
36855;SDS011;22788;51.434;6.786;2022-09-29T03:41:14;4.37;;;2.80;;
36855;SDS011;22788;51.434;6.786;2022-09-29T03:43:40;4.20;;;2.83;;
36855;SDS011;22788;51.434;6.786;2022-09-29T03:46:06;3.13;;;2.83;;
36855;SDS011;22788;51.434;6.786;2022-09-29T03:48:33;6.87;;;3.43;;
36855;SDS011;22788;51.434;6.786;2022-09-29T03:50:59;4.77;;;3.10;;
36855;SDS011;22788;51.434;6.786;2022-09-29T03:53:25;6.70;;;3.10;;
36855;SDS011;22788;51.434;6.786;2022-09-29T03:55:52;5.17;;;3.00;;
36855;SDS011;22788;51.434;6.786;2022-09-29T03:58:18;4.60;;;3.20;;
36855;SDS011;22788;51.434;6.786;2022-09-29T04:00:46;4.03;;;3.27;;
36855;SDS011;22788;51.434;6.786;2022-09-29T04:03:12;5.10;;;3.10;;
36855;SDS011;22788;51.434;6.786;2022-09-29T04:05:38;4.10;;;3.10;;
36855;SDS011;22788;51.434;6.786;2022-09-29T04:08:05;4.20;;;2.83;;
36855;SDS011;22788;51.434;6.786;2022-09-29T04:10:32;3.70;;;3.30;;
36855;SDS011;22788;51.434;6.786;2022-09-29T04:13:00;6.03;;;2.77;;
36855;SDS011;22788;51.434;6.786;2022-09-29T04:15:26;3.17;;;2.83;;
36855;SDS011;22788;51.434;6.786;2022-09-29T04:17:52;5.63;;;3.30;;
36855;SDS011;22788;51.434;6.786;2022-09-29T04:20:18;4.87;;;2.90;;
36855;SDS011;22788;51.434;6.786;2022-09-29T04:22:44;3.73;;;3.27;;
36855;SDS011;22788;51.434;6.786;2022-09-29T04:25:10;5.90;;;3.67;;
36855;SDS011;22788;51.434;6.786;2022-09-29T04:27:36;2.57;;;2.37;;
36855;SDS011;22788;51.434;6.786;2022-09-29T04:30:04;5.80;;;3.27;;
36855;SDS011;22788;51.434;6.786;2022-09-29T04:32:31;4.30;;;2.97;;
36855;SDS011;22788;51.434;6.786;2022-09-29T04:34:57;5.70;;;3.27;;
36855;SDS011;22788;51.434;6.786;2022-09-29T04:37:24;2.83;;;2.60;;
36855;SDS011;22788;51.434;6.786;2022-09-29T04:39:50;4.93;;;2.87;;
36855;SDS011;22788;51.434;6.786;2022-09-29T04:42:16;3.43;;;3.13;;
36855;SDS011;22788;51.434;6.786;2022-09-29T04:44:42;2.97;;;2.73;;
36855;SDS011;22788;51.434;6.786;2022-09-29T04:47:09;4.77;;;3.07;;
36855;SDS011;22788;51.434;6.786;2022-09-29T04:49:35;3.17;;;2.60;;
36855;SDS011;22788;51.434;6.786;2022-09-29T04:52:01;4.17;;;3.07;;
36855;SDS011;22788;51.434;6.786;2022-09-29T04:54:29;6.10;;;3.20;;
36855;SDS011;22788;51.434;6.786;2022-09-29T04:56:55;4.03;;;2.97;;
36855;SDS011;22788;51.434;6.786;2022-09-29T04:59:21;3.53;;;3.00;;
36855;SDS011;22788;51.434;6.786;2022-09-29T05:01:47;4.40;;;3.43;;
36855;SDS011;22788;51.434;6.786;2022-09-29T05:04:15;3.30;;;2.93;;
36855;SDS011;22788;51.434;6.786;2022-09-29T05:06:41;3.50;;;3.07;;
36855;SDS011;22788;51.434;6.786;2022-09-29T05:09:07;5.43;;;3.30;;
36855;SDS011;22788;51.434;6.786;2022-09-29T05:11:33;3.13;;;2.83;;
36855;SDS011;22788;51.434;6.786;2022-09-29T05:13:59;4.33;;;3.33;;
36855;SDS011;22788;51.434;6.786;2022-09-29T05:16:25;3.10;;;2.80;;
36855;SDS011;22788;51.434;6.786;2022-09-29T05:18:51;3.73;;;2.63;;
36855;SDS011;22788;51.434;6.786;2022-09-29T05:21:19;4.47;;;3.00;;
36855;SDS011;22788;51.434;6.786;2022-09-29T05:23:45;3.80;;;3.40;;
36855;SDS011;22788;51.434;6.786;2022-09-29T05:26:11;3.87;;;2.90;;
36855;SDS011;22788;51.434;6.786;2022-09-29T05:28:38;4.07;;;2.60;;
36855;SDS011;22788;51.434;6.786;2022-09-29T05:31:08;3.77;;;3.20;;
36855;SDS011;22788;51.434;6.786;2022-09-29T05:33:35;4.77;;;3.03;;
36855;SDS011;22788;51.434;6.786;2022-09-29T05:36:03;4.10;;;2.83;;
36855;SDS011;22788;51.434;6.786;2022-09-29T05:38:31;4.10;;;2.80;;
36855;SDS011;22788;51.434;6.786;2022-09-29T05:40:57;5.43;;;2.80;;
36855;SDS011;22788;51.434;6.786;2022-09-29T05:43:28;3.83;;;3.07;;
36855;SDS011;22788;51.434;6.786;2022-09-29T05:45:58;4.77;;;2.80;;
36855;SDS011;22788;51.434;6.786;2022-09-29T05:48:24;3.13;;;2.83;;
36855;SDS011;22788;51.434;6.786;2022-09-29T05:50:50;3.50;;;2.73;;
36855;SDS011;22788;51.434;6.786;2022-09-29T05:53:16;3.33;;;2.90;;
36855;SDS011;22788;51.434;6.786;2022-09-29T05:55:43;3.67;;;2.73;;
36855;SDS011;22788;51.434;6.786;2022-09-29T05:58:09;3.10;;;2.80;;
36855;SDS011;22788;51.434;6.786;2022-09-29T06:00:35;4.40;;;2.83;;
36855;SDS011;22788;51.434;6.786;2022-09-29T06:03:01;3.97;;;2.93;;
36855;SDS011;22788;51.434;6.786;2022-09-29T06:05:27;3.53;;;2.80;;
36855;SDS011;22788;51.434;6.786;2022-09-29T06:07:54;4.10;;;3.00;;
36855;SDS011;22788;51.434;6.786;2022-09-29T06:10:20;3.93;;;2.50;;
36855;SDS011;22788;51.434;6.786;2022-09-29T06:12:47;3.70;;;2.87;;
36855;SDS011;22788;51.434;6.786;2022-09-29T06:15:13;5.30;;;3.43;;
36855;SDS011;22788;51.434;6.786;2022-09-29T06:17:39;3.40;;;2.83;;
36855;SDS011;22788;51.434;6.786;2022-09-29T06:20:06;3.93;;;2.93;;
36855;SDS011;22788;51.434;6.786;2022-09-29T06:22:32;3.03;;;2.63;;
36855;SDS011;22788;51.434;6.786;2022-09-29T06:24:58;4.87;;;3.90;;
36855;SDS011;22788;51.434;6.786;2022-09-29T06:27:24;4.43;;;2.70;;
36855;SDS011;22788;51.434;6.786;2022-09-29T06:29:52;2.77;;;2.50;;
36855;SDS011;22788;51.434;6.786;2022-09-29T06:32:18;4.70;;;3.17;;
36855;SDS011;22788;51.434;6.786;2022-09-29T06:34:44;3.63;;;3.27;;
36855;SDS011;22788;51.434;6.786;2022-09-29T06:37:10;5.27;;;3.03;;
36855;SDS011;22788;51.434;6.786;2022-09-29T06:39:36;3.97;;;3.00;;
36855;SDS011;22788;51.434;6.786;2022-09-29T06:42:03;3.53;;;3.07;;
36855;SDS011;22788;51.434;6.786;2022-09-29T06:44:29;3.50;;;2.90;;
36855;SDS011;22788;51.434;6.786;2022-09-29T06:46:57;3.27;;;2.97;;
36855;SDS011;22788;51.434;6.786;2022-09-29T06:49:24;4.80;;;2.70;;
36855;SDS011;22788;51.434;6.786;2022-09-29T06:51:50;7.87;;;3.10;;
36855;SDS011;22788;51.434;6.786;2022-09-29T06:54:17;3.43;;;3.07;;
36855;SDS011;22788;51.434;6.786;2022-09-29T06:56:45;4.90;;;3.10;;
36855;SDS011;22788;51.434;6.786;2022-09-29T06:59:11;4.03;;;3.10;;
36855;SDS011;22788;51.434;6.786;2022-09-29T07:01:37;3.50;;;2.80;;
36855;SDS011;22788;51.434;6.786;2022-09-29T07:04:05;3.47;;;2.70;;
36855;SDS011;22788;51.434;6.786;2022-09-29T07:06:31;3.67;;;2.73;;
36855;SDS011;22788;51.434;6.786;2022-09-29T07:08:57;4.13;;;3.00;;
36855;SDS011;22788;51.434;6.786;2022-09-29T07:11:24;3.70;;;3.00;;
36855;SDS011;22788;51.434;6.786;2022-09-29T07:13:51;3.73;;;2.80;;
36855;SDS011;22788;51.434;6.786;2022-09-29T07:16:17;4.50;;;2.70;;
36855;SDS011;22788;51.434;6.786;2022-09-29T07:18:43;4.93;;;3.13;;
36855;SDS011;22788;51.434;6.786;2022-09-29T07:21:11;4.70;;;2.70;;
36855;SDS011;22788;51.434;6.786;2022-09-29T07:23:38;3.77;;;3.03;;
36855;SDS011;22788;51.434;6.786;2022-09-29T07:26:05;6.33;;;3.07;;
36855;SDS011;22788;51.434;6.786;2022-09-29T07:28:32;7.97;;;3.10;;
36855;SDS011;22788;51.434;6.786;2022-09-29T07:30:59;3.67;;;3.00;;
36855;SDS011;22788;51.434;6.786;2022-09-29T07:33:26;3.83;;;2.70;;
36855;SDS011;22788;51.434;6.786;2022-09-29T07:35:52;4.30;;;3.20;;
36855;SDS011;22788;51.434;6.786;2022-09-29T07:38:20;5.23;;;3.23;;
36855;SDS011;22788;51.434;6.786;2022-09-29T07:40:46;3.90;;;2.90;;
36855;SDS011;22788;51.434;6.786;2022-09-29T07:43:12;4.93;;;3.40;;
36855;SDS011;22788;51.434;6.786;2022-09-29T07:45:42;4.27;;;3.10;;
36855;SDS011;22788;51.434;6.786;2022-09-29T07:48:10;4.90;;;2.97;;
36855;SDS011;22788;51.434;6.786;2022-09-29T07:50:36;4.13;;;3.13;;
36855;SDS011;22788;51.434;6.786;2022-09-29T07:53:02;4.97;;;3.43;;
36855;SDS011;22788;51.434;6.786;2022-09-29T07:55:30;3.70;;;3.13;;
36855;SDS011;22788;51.434;6.786;2022-09-29T07:57:56;3.00;;;2.70;;
36855;SDS011;22788;51.434;6.786;2022-09-29T08:00:22;4.43;;;3.03;;
36855;SDS011;22788;51.434;6.786;2022-09-29T08:02:48;3.77;;;2.90;;
36855;SDS011;22788;51.434;6.786;2022-09-29T08:05:14;4.13;;;3.13;;
36855;SDS011;22788;51.434;6.786;2022-09-29T08:07:40;2.93;;;2.73;;
36855;SDS011;22788;51.434;6.786;2022-09-29T08:10:07;3.50;;;3.17;;
36855;SDS011;22788;51.434;6.786;2022-09-29T08:12:34;3.87;;;3.23;;
36855;SDS011;22788;51.434;6.786;2022-09-29T08:15:00;3.90;;;3.03;;
36855;SDS011;22788;51.434;6.786;2022-09-29T08:17:26;4.17;;;2.70;;
36855;SDS011;22788;51.434;6.786;2022-09-29T08:19:52;4.90;;;3.40;;
36855;SDS011;22788;51.434;6.786;2022-09-29T08:22:18;3.57;;;3.10;;
36855;SDS011;22788;51.434;6.786;2022-09-29T08:24:44;3.40;;;2.70;;
36855;SDS011;22788;51.434;6.786;2022-09-29T08:27:10;3.03;;;2.67;;
36855;SDS011;22788;51.434;6.786;2022-09-29T08:29:38;3.33;;;2.60;;
36855;SDS011;22788;51.434;6.786;2022-09-29T08:32:04;4.77;;;2.90;;
36855;SDS011;22788;51.434;6.786;2022-09-29T08:34:30;3.83;;;3.43;;
36855;SDS011;22788;51.434;6.786;2022-09-29T08:36:56;4.03;;;3.10;;
36855;SDS011;22788;51.434;6.786;2022-09-29T08:39:22;5.80;;;3.23;;
36855;SDS011;22788;51.434;6.786;2022-09-29T08:41:49;3.57;;;2.50;;
36855;SDS011;22788;51.434;6.786;2022-09-29T08:44:18;4.77;;;3.03;;
36855;SDS011;22788;51.434;6.786;2022-09-29T08:46:50;4.73;;;3.00;;
36855;SDS011;22788;51.434;6.786;2022-09-29T08:49:19;3.20;;;2.60;;
36855;SDS011;22788;51.434;6.786;2022-09-29T08:51:52;2.93;;;2.40;;
36855;SDS011;22788;51.434;6.786;2022-09-29T08:54:23;3.20;;;2.50;;
36855;SDS011;22788;51.434;6.786;2022-09-29T08:56:54;3.67;;;2.77;;
36855;SDS011;22788;51.434;6.786;2022-09-29T08:59:21;5.70;;;2.80;;
36855;SDS011;22788;51.434;6.786;2022-09-29T09:01:51;3.57;;;2.87;;
36855;SDS011;22788;51.434;6.786;2022-09-29T09:04:30;4.63;;;2.47;;
36855;SDS011;22788;51.434;6.786;2022-09-29T09:07:16;5.00;;;2.60;;
36855;SDS011;22788;51.434;6.786;2022-09-29T09:09:52;4.07;;;2.77;;
36855;SDS011;22788;51.434;6.786;2022-09-29T09:12:29;4.83;;;2.83;;
36855;SDS011;22788;51.434;6.786;2022-09-29T09:15:15;3.43;;;3.10;;
36855;SDS011;22788;51.434;6.786;2022-09-29T09:18:00;3.20;;;2.67;;
36855;SDS011;22788;51.434;6.786;2022-09-29T09:20:47;4.07;;;2.70;;
36855;SDS011;22788;51.434;6.786;2022-09-29T09:23:22;4.23;;;3.20;;
36855;SDS011;22788;51.434;6.786;2022-09-29T09:25:53;4.03;;;2.57;;
36855;SDS011;22788;51.434;6.786;2022-09-29T09:28:24;3.90;;;3.10;;
36855;SDS011;22788;51.434;6.786;2022-09-29T09:30:56;4.10;;;3.30;;
36855;SDS011;22788;51.434;6.786;2022-09-29T09:33:28;4.10;;;2.90;;
36855;SDS011;22788;51.434;6.786;2022-09-29T09:36:01;8.63;;;4.83;;
36855;SDS011;22788;51.434;6.786;2022-09-29T09:38:36;5.63;;;3.80;;
36855;SDS011;22788;51.434;6.786;2022-09-29T09:41:09;3.40;;;2.90;;
36855;SDS011;22788;51.434;6.786;2022-09-29T09:43:38;7.83;;;5.63;;
36855;SDS011;22788;51.434;6.786;2022-09-29T09:46:08;3.60;;;3.20;;
36855;SDS011;22788;51.434;6.786;2022-09-29T09:48:41;4.30;;;3.07;;
36855;SDS011;22788;51.434;6.786;2022-09-29T09:51:19;5.07;;;4.33;;
36855;SDS011;22788;51.434;6.786;2022-09-29T09:53:54;5.00;;;3.87;;
36855;SDS011;22788;51.434;6.786;2022-09-29T09:56:30;6.73;;;4.60;;
36855;SDS011;22788;51.434;6.786;2022-09-29T09:59:16;5.90;;;3.47;;
36855;SDS011;22788;51.434;6.786;2022-09-29T10:01:53;6.97;;;3.70;;
36855;SDS011;22788;51.434;6.786;2022-09-29T10:04:20;6.87;;;3.17;;
36855;SDS011;22788;51.434;6.786;2022-09-29T10:06:46;4.90;;;4.10;;
36855;SDS011;22788;51.434;6.786;2022-09-29T10:09:13;4.70;;;3.30;;
36855;SDS011;22788;51.434;6.786;2022-09-29T10:11:40;3.97;;;3.50;;
36855;SDS011;22788;51.434;6.786;2022-09-29T10:14:09;7.43;;;3.67;;
36855;SDS011;22788;51.434;6.786;2022-09-29T10:16:40;4.00;;;3.50;;
36855;SDS011;22788;51.434;6.786;2022-09-29T10:19:10;6.73;;;3.50;;
36855;SDS011;22788;51.434;6.786;2022-09-29T10:21:38;3.93;;;3.23;;
36855;SDS011;22788;51.434;6.786;2022-09-29T10:24:18;7.37;;;3.87;;
36855;SDS011;22788;51.434;6.786;2022-09-29T10:26:46;5.77;;;3.23;;
36855;SDS011;22788;51.434;6.786;2022-09-29T10:29:20;6.03;;;3.90;;
36855;SDS011;22788;51.434;6.786;2022-09-29T10:31:56;8.43;;;6.10;;
36855;SDS011;22788;51.434;6.786;2022-09-29T10:34:24;4.60;;;4.03;;
36855;SDS011;22788;51.434;6.786;2022-09-29T10:36:53;4.97;;;4.00;;
36855;SDS011;22788;51.434;6.786;2022-09-29T10:39:28;6.60;;;3.60;;
36855;SDS011;22788;51.434;6.786;2022-09-29T10:41:56;9.07;;;4.53;;
36855;SDS011;22788;51.434;6.786;2022-09-29T10:44:22;4.03;;;3.03;;
36855;SDS011;22788;51.434;6.786;2022-09-29T10:46:50;3.23;;;2.90;;
36855;SDS011;22788;51.434;6.786;2022-09-29T10:49:19;6.53;;;3.47;;
36855;SDS011;22788;51.434;6.786;2022-09-29T10:51:49;5.50;;;3.53;;
36855;SDS011;22788;51.434;6.786;2022-09-29T10:54:20;8.30;;;3.63;;
36855;SDS011;22788;51.434;6.786;2022-09-29T10:56:48;4.63;;;3.30;;
36855;SDS011;22788;51.434;6.786;2022-09-29T10:59:14;5.73;;;3.40;;
36855;SDS011;22788;51.434;6.786;2022-09-29T11:01:43;3.33;;;2.73;;
36855;SDS011;22788;51.434;6.786;2022-09-29T11:04:13;3.57;;;3.10;;
36855;SDS011;22788;51.434;6.786;2022-09-29T11:06:42;3.13;;;2.70;;
36855;SDS011;22788;51.434;6.786;2022-09-29T11:09:25;4.60;;;3.23;;
36855;SDS011;22788;51.434;6.786;2022-09-29T11:11:54;4.97;;;3.23;;
36855;SDS011;22788;51.434;6.786;2022-09-29T11:14:25;4.47;;;3.50;;
36855;SDS011;22788;51.434;6.786;2022-09-29T11:16:53;5.50;;;3.00;;
36855;SDS011;22788;51.434;6.786;2022-09-29T11:19:21;6.13;;;3.13;;
36855;SDS011;22788;51.434;6.786;2022-09-29T11:21:51;5.23;;;3.00;;
36855;SDS011;22788;51.434;6.786;2022-09-29T11:27:42;4.00;;;3.20;;
36855;SDS011;22788;51.434;6.786;2022-09-29T11:30:18;5.17;;;2.97;;
36855;SDS011;22788;51.434;6.786;2022-09-29T11:32:52;3.90;;;2.83;;
36855;SDS011;22788;51.434;6.786;2022-09-29T11:35:31;3.03;;;2.53;;
36855;SDS011;22788;51.434;6.786;2022-09-29T11:38:17;3.60;;;2.90;;
36855;SDS011;22788;51.434;6.786;2022-09-29T11:41:06;3.80;;;2.73;;
36855;SDS011;22788;51.434;6.786;2022-09-29T11:43:42;3.67;;;2.63;;
36855;SDS011;22788;51.434;6.786;2022-09-29T11:46:15;4.70;;;3.13;;
36855;SDS011;22788;51.434;6.786;2022-09-29T11:52:09;3.83;;;2.60;;
36855;SDS011;22788;51.434;6.786;2022-09-29T11:55:06;3.20;;;2.90;;
36855;SDS011;22788;51.434;6.786;2022-09-29T11:57:48;6.90;;;2.80;;
36855;SDS011;22788;51.434;6.786;2022-09-29T12:00:27;5.37;;;3.17;;
36855;SDS011;22788;51.434;6.786;2022-09-29T12:03:10;3.40;;;2.50;;
36855;SDS011;22788;51.434;6.786;2022-09-29T12:05:49;2.73;;;2.20;;
36855;SDS011;22788;51.434;6.786;2022-09-29T12:08:27;3.50;;;2.77;;
36855;SDS011;22788;51.434;6.786;2022-09-29T12:11:04;5.50;;;3.00;;
36855;SDS011;22788;51.434;6.786;2022-09-29T12:13:39;4.87;;;2.53;;
36855;SDS011;22788;51.434;6.786;2022-09-29T12:16:14;3.90;;;2.57;;
36855;SDS011;22788;51.434;6.786;2022-09-29T12:18:44;2.80;;;2.47;;
36855;SDS011;22788;51.434;6.786;2022-09-29T12:21:14;4.17;;;2.70;;
36855;SDS011;22788;51.434;6.786;2022-09-29T12:23:47;3.53;;;2.80;;
36855;SDS011;22788;51.434;6.786;2022-09-29T12:26:14;4.30;;;2.80;;
36855;SDS011;22788;51.434;6.786;2022-09-29T12:28:46;4.30;;;2.57;;
36855;SDS011;22788;51.434;6.786;2022-09-29T12:31:19;4.87;;;2.57;;
36855;SDS011;22788;51.434;6.786;2022-09-29T12:33:50;3.97;;;2.57;;
36855;SDS011;22788;51.434;6.786;2022-09-29T12:36:28;3.20;;;2.50;;
36855;SDS011;22788;51.434;6.786;2022-09-29T12:38:59;2.57;;;2.30;;
36855;SDS011;22788;51.434;6.786;2022-09-29T12:41:30;2.90;;;2.30;;
36855;SDS011;22788;51.434;6.786;2022-09-29T12:44:05;3.60;;;2.70;;
36855;SDS011;22788;51.434;6.786;2022-09-29T12:46:40;4.17;;;2.60;;
36855;SDS011;22788;51.434;6.786;2022-09-29T12:49:12;2.80;;;2.50;;
36855;SDS011;22788;51.434;6.786;2022-09-29T12:51:46;4.18;;;2.58;;
36855;SDS011;22788;51.434;6.786;2022-09-29T12:54:15;10.20;;;3.20;;
36855;SDS011;22788;51.434;6.786;2022-09-29T12:56:47;6.78;;;3.40;;
36855;SDS011;22788;51.434;6.786;2022-09-29T12:59:24;6.27;;;3.40;;
36855;SDS011;22788;51.434;6.786;2022-09-29T13:01:59;6.13;;;2.80;;
36855;SDS011;22788;51.434;6.786;2022-09-29T13:04:52;4.10;;;2.67;;
36855;SDS011;22788;51.434;6.786;2022-09-29T13:10:43;4.67;;;2.43;;
36855;SDS011;22788;51.434;6.786;2022-09-29T13:19:24;7.73;;;3.30;;
36855;SDS011;22788;51.434;6.786;2022-09-29T13:22:19;5.47;;;2.47;;
36855;SDS011;22788;51.434;6.786;2022-09-29T13:24:57;5.17;;;2.60;;
36855;SDS011;22788;51.434;6.786;2022-09-29T13:27:30;6.00;;;2.70;;
36855;SDS011;22788;51.434;6.786;2022-09-29T13:30:01;3.20;;;2.30;;
36855;SDS011;22788;51.434;6.786;2022-09-29T13:32:31;3.20;;;2.07;;
36855;SDS011;22788;51.434;6.786;2022-09-29T13:35:03;3.50;;;2.30;;
36855;SDS011;22788;51.434;6.786;2022-09-29T13:37:41;4.67;;;2.20;;
36855;SDS011;22788;51.434;6.786;2022-09-29T13:40:15;2.00;;;1.80;;
36855;SDS011;22788;51.434;6.786;2022-09-29T13:42:46;5.47;;;2.60;;
36855;SDS011;22788;51.434;6.786;2022-09-29T13:45:33;2.80;;;2.20;;
36855;SDS011;22788;51.434;6.786;2022-09-29T13:54:19;2.97;;;2.40;;
36855;SDS011;22788;51.434;6.786;2022-09-29T13:57:16;3.83;;;2.10;;
36855;SDS011;22788;51.434;6.786;2022-09-29T13:59:45;3.73;;;1.93;;
36855;SDS011;22788;51.434;6.786;2022-09-29T14:02:27;2.33;;;1.90;;
36855;SDS011;22788;51.434;6.786;2022-09-29T14:05:00;2.70;;;2.10;;
36855;SDS011;22788;51.434;6.786;2022-09-29T14:07:36;3.17;;;1.80;;
36855;SDS011;22788;51.434;6.786;2022-09-29T14:10:13;2.40;;;2.20;;
36855;SDS011;22788;51.434;6.786;2022-09-29T14:12:43;2.53;;;1.80;;
36855;SDS011;22788;51.434;6.786;2022-09-29T14:15:11;2.60;;;2.10;;
36855;SDS011;22788;51.434;6.786;2022-09-29T14:17:43;2.53;;;2.10;;
36855;SDS011;22788;51.434;6.786;2022-09-29T14:20:15;5.37;;;2.50;;
36855;SDS011;22788;51.434;6.786;2022-09-29T14:22:51;2.40;;;2.20;;
36855;SDS011;22788;51.434;6.786;2022-09-29T14:25:47;2.10;;;1.90;;
36855;SDS011;22788;51.434;6.786;2022-09-29T14:28:16;3.70;;;1.67;;
36855;SDS011;22788;51.434;6.786;2022-09-29T14:30:51;2.40;;;1.83;;
36855;SDS011;22788;51.434;6.786;2022-09-29T14:33:20;4.80;;;1.90;;
36855;SDS011;22788;51.434;6.786;2022-09-29T14:35:54;2.47;;;1.70;;
36855;SDS011;22788;51.434;6.786;2022-09-29T14:38:28;2.73;;;1.70;;
36855;SDS011;22788;51.434;6.786;2022-09-29T14:40:57;2.63;;;1.80;;
36855;SDS011;22788;51.434;6.786;2022-09-29T14:43:31;1.93;;;1.77;;
36855;SDS011;22788;51.434;6.786;2022-09-29T14:46:11;3.57;;;2.10;;
36855;SDS011;22788;51.434;6.786;2022-09-29T14:48:54;2.30;;;1.90;;
36855;SDS011;22788;51.434;6.786;2022-09-29T14:51:35;3.80;;;2.07;;
36855;SDS011;22788;51.434;6.786;2022-09-29T14:54:09;1.70;;;1.57;;
36855;SDS011;22788;51.434;6.786;2022-09-29T14:56:46;2.33;;;1.77;;
36855;SDS011;22788;51.434;6.786;2022-09-29T14:59:22;2.40;;;1.67;;
36855;SDS011;22788;51.434;6.786;2022-09-29T15:04:44;2.43;;;1.60;;
36855;SDS011;22788;51.434;6.786;2022-09-29T15:07:15;2.13;;;1.70;;
36855;SDS011;22788;51.434;6.786;2022-09-29T15:09:44;1.93;;;1.60;;
36855;SDS011;22788;51.434;6.786;2022-09-29T15:12:13;2.13;;;1.60;;
36855;SDS011;22788;51.434;6.786;2022-09-29T15:14:41;2.60;;;1.53;;
36855;SDS011;22788;51.434;6.786;2022-09-29T15:17:11;1.60;;;1.50;;
36855;SDS011;22788;51.434;6.786;2022-09-29T15:19:43;3.20;;;1.77;;
36855;SDS011;22788;51.434;6.786;2022-09-29T15:22:20;4.13;;;1.83;;
36855;SDS011;22788;51.434;6.786;2022-09-29T15:25:05;7.45;;;2.47;;
36855;SDS011;22788;51.434;6.786;2022-09-29T15:27:42;8.77;;;2.17;;
36855;SDS011;22788;51.434;6.786;2022-09-29T15:30:12;9.00;;;2.20;;
36855;SDS011;22788;51.434;6.786;2022-09-29T15:32:40;7.30;;;2.13;;
36855;SDS011;22788;51.434;6.786;2022-09-29T15:35:10;18.70;;;2.57;;